createdAt,value
2024-02-29T00:00:55.803Z,83.84
2024-02-29T00:01:55.735Z,83.74
2024-02-29T00:02:55.687Z,83.84
2024-02-29T00:03:55.760Z,83.84
2024-02-29T00:04:55.694Z,84.05
2024-02-29T00:05:55.659Z,84.16
2024-02-29T00:06:55.668Z,84.16
2024-02-29T00:07:55.640Z,84.16
2024-02-29T00:08:55.612Z,84.26
2024-02-29T00:09:55.661Z,84.26
2024-02-29T00:10:55.660Z,84.36
2024-02-29T00:11:55.593Z,84.36
2024-02-29T00:12:55.660Z,84.36
2024-02-29T00:13:55.551Z,84.47
2024-02-29T00:14:55.575Z,84.05
2024-02-29T00:15:55.567Z,83.74
2024-02-29T00:16:55.569Z,83.63
2024-02-29T00:17:55.575Z,83.47
2024-02-29T00:18:55.578Z,83.88
2024-02-29T00:19:55.529Z,84.09
2024-02-29T00:20:55.500Z,83.98
2024-02-29T00:21:55.511Z,83.88
2024-02-29T00:22:55.497Z,83.67
2024-02-29T00:23:55.454Z,83.67
2024-02-29T00:24:55.506Z,84.19
2024-02-29T00:25:55.448Z,84.40
2024-02-29T00:26:55.450Z,84.61
2024-02-29T00:27:55.478Z,84.50
2024-02-29T00:28:55.438Z,84.09
2024-02-29T00:29:55.387Z,83.98
2024-02-29T00:30:55.402Z,83.78
2024-02-29T00:31:55.347Z,83.78
2024-02-29T00:32:57.898Z,83.78
2024-02-29T00:33:55.426Z,84.09
2024-02-29T00:34:55.347Z,84.09
2024-02-29T00:36:05.078Z,83.98
2024-02-29T00:36:56.355Z,83.98
2024-02-29T00:37:55.293Z,83.98
2024-02-29T00:39:02.330Z,83.98
2024-02-29T00:39:56.329Z,83.78
2024-02-29T00:40:55.267Z,83.47
2024-02-29T00:41:55.282Z,83.36
2024-02-29T00:42:55.288Z,83.36
2024-02-29T00:43:55.238Z,83.36
2024-02-29T00:44:55.201Z,83.57
2024-02-29T00:45:55.243Z,83.47
2024-02-29T00:46:55.210Z,83.61
2024-02-29T00:47:55.229Z,83.71
2024-02-29T00:48:55.232Z,84.02
2024-02-29T00:49:55.143Z,84.23
2024-02-29T00:50:55.187Z,84.65
2024-02-29T00:51:55.148Z,85.06
2024-02-29T00:52:55.120Z,85.06
2024-02-29T00:53:55.116Z,85.17
2024-02-29T00:54:55.176Z,85.06
2024-02-29T00:55:55.117Z,84.96
2024-02-29T00:56:55.120Z,84.86
2024-02-29T00:57:55.073Z,84.75
2024-02-29T00:58:55.068Z,84.65
2024-02-29T00:59:55.076Z,84.65
2024-02-29T01:00:55.095Z,84.75
2024-02-29T01:01:55.061Z,84.65
2024-02-29T01:02:55.038Z,84.65
2024-02-29T01:03:55.058Z,84.75
2024-02-29T01:04:55.049Z,84.86
2024-02-29T01:05:54.984Z,84.96
2024-02-29T01:06:55.008Z,85.06
2024-02-29T01:07:54.956Z,85.06
2024-02-29T01:08:55.016Z,85.17
2024-02-29T01:09:54.974Z,85.27
2024-02-29T01:10:54.933Z,85.17
2024-02-29T01:11:54.925Z,85.06
2024-02-29T01:12:54.911Z,85.06
2024-02-29T01:13:54.873Z,85.06
2024-02-29T01:14:54.915Z,84.96
2024-02-29T01:15:54.885Z,84.96
2024-02-29T01:16:54.891Z,84.75
2024-02-29T01:17:54.849Z,84.86
2024-02-29T01:18:54.872Z,84.96
2024-02-29T01:19:54.812Z,84.96
2024-02-29T01:20:54.834Z,85.06
2024-02-29T01:21:54.834Z,84.96
2024-02-29T01:22:54.772Z,84.96
2024-02-29T01:23:54.787Z,84.96
2024-02-29T01:24:54.797Z,84.86
2024-02-29T01:25:54.776Z,84.96
2024-02-29T01:26:54.777Z,84.96
2024-02-29T01:27:54.779Z,84.96
2024-02-29T01:28:54.763Z,85.06
2024-02-29T01:29:54.708Z,84.86
2024-02-29T01:30:54.708Z,84.69
2024-02-29T01:31:54.694Z,84.79
2024-02-29T01:32:54.719Z,85.21
2024-02-29T01:33:54.689Z,85.42
2024-02-29T01:34:54.693Z,85.52
2024-02-29T01:35:54.644Z,85.83
2024-02-29T01:36:54.644Z,85.94
2024-02-29T01:37:54.613Z,85.73
2024-02-29T01:38:54.601Z,85.52
2024-02-29T01:39:54.693Z,85.42
2024-02-29T01:40:54.607Z,85.31
2024-02-29T01:41:54.559Z,85.31
2024-02-29T01:42:54.601Z,85.31
2024-02-29T01:43:54.543Z,85.31
2024-02-29T01:44:54.593Z,85.11
2024-02-29T01:45:54.551Z,85.21
2024-02-29T01:46:54.521Z,85.11
2024-02-29T01:47:54.607Z,85.14
2024-02-29T01:48:54.552Z,85.35
2024-02-29T01:49:54.483Z,85.35
2024-02-29T01:50:54.494Z,85.46
2024-02-29T01:51:54.489Z,85.56
2024-02-29T01:52:54.436Z,85.46
2024-02-29T01:53:54.461Z,85.46
2024-02-29T01:54:54.454Z,85.67
2024-02-29T01:55:54.439Z,85.77
2024-02-29T01:56:54.394Z,85.88
2024-02-29T01:57:54.443Z,85.77
2024-02-29T01:58:54.374Z,85.88
2024-02-29T01:59:54.386Z,85.77
2024-02-29T02:00:54.410Z,85.77
2024-02-29T02:01:54.342Z,85.88
2024-02-29T02:02:54.340Z,85.98
2024-02-29T02:03:54.304Z,86.08
2024-02-29T02:04:54.376Z,86.08
2024-02-29T02:05:54.290Z,86.08
2024-02-29T02:06:54.360Z,85.98
2024-02-29T02:07:54.283Z,85.88
2024-02-29T02:08:54.252Z,85.88
2024-02-29T02:09:54.299Z,86.08
2024-02-29T02:10:54.269Z,86.19
2024-02-29T02:11:54.278Z,86.08
2024-02-29T02:12:54.244Z,85.88
2024-02-29T02:13:54.248Z,85.67
2024-02-29T02:14:54.199Z,85.56
2024-02-29T02:15:54.221Z,85.31
2024-02-29T02:16:54.229Z,85.14
2024-02-29T02:17:54.163Z,85.14
2024-02-29T02:18:54.148Z,85.14
2024-02-29T02:19:54.147Z,85.35
2024-02-29T02:20:54.129Z,85.35
2024-02-29T02:21:54.153Z,85.35
2024-02-29T02:22:54.140Z,85.56
2024-02-29T02:23:54.087Z,85.46
2024-02-29T02:24:54.105Z,85.56
2024-02-29T02:25:54.078Z,85.56
2024-02-29T02:26:54.087Z,85.46
2024-02-29T02:27:54.104Z,85.46
2024-02-29T02:28:54.092Z,85.46
2024-02-29T02:29:54.033Z,85.25
2024-02-29T02:30:54.026Z,85.14
2024-02-29T02:31:54.035Z,85.04
2024-02-29T02:32:54.049Z,84.97
2024-02-29T02:33:54.009Z,85.08
2024-02-29T02:34:54.005Z,85.29
2024-02-29T02:35:53.989Z,85.71
2024-02-29T02:36:54.038Z,86.02
2024-02-29T02:37:53.955Z,85.91
2024-02-29T02:38:53.925Z,86.02
2024-02-29T02:39:53.957Z,86.08
2024-02-29T02:40:53.906Z,85.88
2024-02-29T02:41:53.911Z,85.88
2024-02-29T02:42:53.908Z,85.88
2024-02-29T02:43:53.865Z,85.88
2024-02-29T02:44:53.864Z,85.81
2024-02-29T02:45:53.915Z,85.81
2024-02-29T02:46:53.850Z,85.71
2024-02-29T02:47:53.863Z,85.71
2024-02-29T02:48:53.824Z,85.81
2024-02-29T02:49:53.802Z,85.67
2024-02-29T02:50:53.870Z,85.67
2024-02-29T02:51:53.806Z,85.56
2024-02-29T02:52:53.767Z,85.60
2024-02-29T02:53:53.764Z,85.67
2024-02-29T02:54:53.782Z,85.77
2024-02-29T02:55:53.759Z,85.77
2024-02-29T02:56:53.780Z,85.77
2024-02-29T02:57:53.742Z,85.67
2024-02-29T02:58:53.705Z,85.88
2024-02-29T02:59:53.726Z,85.88
2024-02-29T03:00:53.733Z,85.88
2024-02-29T03:01:53.765Z,85.67
2024-02-29T03:02:53.693Z,85.56
2024-02-29T03:03:53.810Z,85.46
2024-02-29T03:04:53.707Z,85.46
2024-02-29T03:05:53.625Z,85.56
2024-02-29T03:06:53.674Z,85.56
2024-02-29T03:07:53.632Z,85.46
2024-02-29T03:08:53.595Z,85.35
2024-02-29T03:09:53.642Z,85.35
2024-02-29T03:10:53.612Z,85.46
2024-02-29T03:11:53.567Z,85.46
2024-02-29T03:12:53.629Z,85.35
2024-02-29T03:13:53.576Z,85.46
2024-02-29T03:14:53.526Z,85.56
2024-02-29T03:15:53.533Z,85.56
2024-02-29T03:16:53.553Z,85.46
2024-02-29T03:17:53.582Z,85.46
2024-02-29T03:18:53.565Z,85.25
2024-02-29T03:19:53.475Z,85.25
2024-02-29T03:20:53.466Z,85.25
2024-02-29T03:21:53.514Z,85.14
2024-02-29T03:22:53.443Z,85.14
2024-02-29T03:23:53.418Z,85.14
2024-02-29T03:24:53.456Z,85.08
2024-02-29T03:25:53.417Z,85.18
2024-02-29T03:26:53.377Z,85.29
2024-02-29T03:27:53.455Z,85.39
2024-02-29T03:28:53.374Z,85.50
2024-02-29T03:29:53.414Z,85.50
2024-02-29T03:30:53.347Z,85.60
2024-02-29T03:31:53.330Z,85.60
2024-02-29T03:32:53.362Z,85.50
2024-02-29T03:33:53.330Z,85.56
2024-02-29T03:34:53.315Z,85.56
2024-02-29T03:35:53.336Z,85.46
2024-02-29T03:36:53.324Z,85.35
2024-02-29T03:37:53.290Z,85.35
2024-02-29T03:38:53.278Z,85.35
2024-02-29T03:39:53.323Z,85.46
2024-02-29T03:40:53.313Z,85.46
2024-02-29T03:41:53.246Z,85.56
2024-02-29T03:42:53.257Z,85.56
2024-02-29T03:43:53.230Z,85.46
2024-02-29T03:44:56.863Z,85.35
2024-02-29T03:45:53.226Z,85.14
2024-02-29T03:46:53.167Z,85.25
2024-02-29T03:47:53.156Z,85.35
2024-02-29T03:48:53.197Z,85.35
2024-02-29T03:49:53.131Z,85.35
2024-02-29T03:50:53.161Z,85.25
2024-02-29T03:51:53.175Z,85.18
2024-02-29T03:52:53.124Z,85.29
2024-02-29T03:53:53.082Z,85.29
2024-02-29T03:54:53.079Z,85.29
2024-02-29T03:55:53.080Z,85.29
2024-02-29T03:56:53.117Z,85.18
2024-02-29T03:57:53.137Z,85.39
2024-02-29T03:58:53.055Z,85.39
2024-02-29T03:59:53.059Z,85.60
2024-02-29T04:00:53.106Z,85.60
2024-02-29T04:01:53.113Z,85.71
2024-02-29T04:02:53.041Z,85.85
2024-02-29T04:03:53.022Z,85.96
2024-02-29T04:04:53.021Z,86.06
2024-02-29T04:05:52.960Z,86.16
2024-02-29T04:06:53.005Z,86.16
2024-02-29T04:07:52.945Z,86.27
2024-02-29T04:08:52.964Z,86.16
2024-02-29T04:09:53.014Z,86.47
2024-02-29T04:10:52.912Z,86.47
2024-02-29T04:11:52.898Z,86.37
2024-02-29T04:12:52.954Z,86.37
2024-02-29T04:13:52.877Z,86.44
2024-02-29T04:14:52.880Z,86.33
2024-02-29T04:15:52.907Z,86.27
2024-02-29T04:16:52.848Z,86.23
2024-02-29T04:17:52.936Z,86.16
2024-02-29T04:18:52.890Z,86.06
2024-02-29T04:19:52.833Z,86.06
2024-02-29T04:20:52.919Z,86.16
2024-02-29T04:21:52.821Z,86.16
2024-02-29T04:22:52.790Z,86.27
2024-02-29T04:23:52.803Z,86.27
2024-02-29T04:24:52.788Z,86.37
2024-02-29T04:25:52.739Z,86.47
2024-02-29T04:26:52.754Z,86.58
2024-02-29T04:27:52.777Z,86.47
2024-02-29T04:28:52.736Z,86.37
2024-02-29T04:29:52.706Z,86.27
2024-02-29T04:30:52.717Z,86.37
2024-02-29T04:31:52.700Z,86.37
2024-02-29T04:32:52.738Z,86.31
2024-02-29T04:33:52.673Z,86.20
2024-02-29T04:34:52.692Z,86.41
2024-02-29T04:35:52.638Z,86.41
2024-02-29T04:36:52.633Z,86.41
2024-02-29T04:37:52.635Z,86.41
2024-02-29T04:38:52.626Z,86.31
2024-02-29T04:39:52.612Z,86.52
2024-02-29T04:40:52.601Z,86.72
2024-02-29T04:41:52.580Z,86.83
2024-02-29T04:42:52.569Z,86.93
2024-02-29T04:43:52.552Z,86.93
2024-02-29T04:44:52.541Z,86.93
2024-02-29T04:45:52.581Z,86.93
2024-02-29T04:46:52.559Z,87.04
2024-02-29T04:47:52.560Z,87.04
2024-02-29T04:48:52.589Z,86.93
2024-02-29T04:49:52.504Z,86.93
2024-02-29T04:50:52.499Z,86.93
2024-02-29T04:51:52.502Z,86.93
2024-02-29T04:52:52.465Z,87.04
2024-02-29T04:53:52.440Z,87.15
2024-02-29T04:54:52.457Z,87.15
2024-02-29T04:55:52.472Z,87.04
2024-02-29T04:56:52.418Z,87.15
2024-02-29T04:57:52.454Z,87.25
2024-02-29T04:58:52.396Z,87.15
2024-02-29T04:59:52.383Z,87.04
2024-02-29T05:00:52.453Z,87.04
2024-02-29T05:01:52.480Z,86.93
2024-02-29T05:02:52.353Z,86.90
2024-02-29T05:03:52.376Z,86.90
2024-02-29T05:04:52.322Z,86.79
2024-02-29T05:05:52.321Z,86.58
2024-02-29T05:06:52.360Z,86.41
2024-02-29T05:07:52.342Z,86.41
2024-02-29T05:08:52.289Z,86.41
2024-02-29T05:09:52.272Z,86.31
2024-02-29T05:10:52.304Z,86.31
2024-02-29T05:11:52.233Z,86.31
2024-02-29T05:12:52.290Z,86.41
2024-02-29T05:13:52.259Z,86.52
2024-02-29T05:14:52.244Z,86.62
2024-02-29T05:15:52.227Z,86.62
2024-02-29T05:16:52.192Z,86.62
2024-02-29T05:17:52.210Z,86.62
2024-02-29T05:18:52.237Z,86.62
2024-02-29T05:19:52.192Z,86.62
2024-02-29T05:20:52.154Z,86.72
2024-02-29T05:21:52.138Z,86.72
2024-02-29T05:22:52.154Z,86.62
2024-02-29T05:23:52.119Z,86.72
2024-02-29T05:24:52.179Z,86.83
2024-02-29T05:25:52.130Z,86.72
2024-02-29T05:26:52.081Z,86.72
2024-02-29T05:27:52.079Z,86.93
2024-02-29T05:28:52.052Z,86.93
2024-02-29T05:29:52.058Z,86.93
2024-02-29T05:30:52.098Z,86.83
2024-02-29T05:31:52.027Z,86.93
2024-02-29T05:32:52.110Z,86.83
2024-02-29T05:33:52.028Z,86.83
2024-02-29T05:34:52.022Z,86.93
2024-02-29T05:35:52.017Z,86.93
2024-02-29T05:36:52.065Z,86.93
2024-02-29T05:37:51.989Z,87.04
2024-02-29T05:38:51.973Z,87.15
2024-02-29T05:39:51.983Z,87.15
2024-02-29T05:40:51.965Z,87.25
2024-02-29T05:41:51.956Z,87.35
2024-02-29T05:42:51.951Z,87.25
2024-02-29T05:43:51.914Z,87.15
2024-02-29T05:44:51.898Z,87.15
2024-02-29T05:45:51.944Z,86.93
2024-02-29T05:46:51.904Z,87.04
2024-02-29T05:47:51.936Z,87.04
2024-02-29T05:48:51.861Z,87.04
2024-02-29T05:49:51.835Z,87.15
2024-02-29T05:50:51.906Z,87.04
2024-02-29T05:51:51.857Z,87.04
2024-02-29T05:52:51.808Z,87.04
2024-02-29T05:53:51.814Z,87.04
2024-02-29T05:54:51.851Z,86.93
2024-02-29T05:55:51.752Z,86.83
2024-02-29T05:56:51.787Z,86.93
2024-02-29T05:57:51.773Z,86.93
2024-02-29T05:58:51.771Z,86.83
2024-02-29T05:59:51.719Z,86.98
2024-02-29T06:00:51.759Z,86.98
2024-02-29T06:01:51.863Z,87.04
2024-02-29T06:02:53.112Z,87.15
2024-02-29T06:03:51.693Z,87.04
2024-02-29T06:04:51.712Z,86.93
2024-02-29T06:05:51.661Z,86.83
2024-02-29T06:06:51.675Z,86.83
2024-02-29T06:07:51.648Z,86.93
2024-02-29T06:08:51.643Z,86.93
2024-02-29T06:09:51.616Z,86.93
2024-02-29T06:10:51.696Z,86.93
2024-02-29T06:11:51.589Z,87.15
2024-02-29T06:12:51.633Z,87.15
2024-02-29T06:13:51.562Z,87.04
2024-02-29T06:14:51.566Z,87.04
2024-02-29T06:15:51.631Z,86.83
2024-02-29T06:16:51.563Z,86.72
2024-02-29T06:17:51.606Z,86.52
2024-02-29T06:18:51.609Z,86.52
2024-02-29T06:19:51.543Z,86.52
2024-02-29T06:20:51.532Z,86.52
2024-02-29T06:21:51.550Z,86.52
2024-02-29T06:22:51.487Z,86.41
2024-02-29T06:23:51.502Z,86.41
2024-02-29T06:24:51.538Z,86.31
2024-02-29T06:25:51.468Z,86.20
2024-02-29T06:26:51.457Z,86.16
2024-02-29T06:27:51.444Z,86.20
2024-02-29T06:28:51.409Z,86.20
2024-02-29T06:29:51.412Z,86.27
2024-02-29T06:30:51.460Z,86.47
2024-02-29T06:31:51.412Z,86.37
2024-02-29T06:32:51.405Z,86.27
2024-02-29T06:33:51.389Z,86.27
2024-02-29T06:34:51.375Z,86.37
2024-02-29T06:35:51.340Z,86.37
2024-02-29T06:36:51.367Z,86.16
2024-02-29T06:37:51.342Z,86.06
2024-02-29T06:38:51.307Z,86.27
2024-02-29T06:39:51.309Z,86.13
2024-02-29T06:40:51.292Z,86.02
2024-02-29T06:41:51.294Z,85.96
2024-02-29T06:42:51.334Z,85.91
2024-02-29T06:43:51.291Z,86.02
2024-02-29T06:44:51.240Z,85.91
2024-02-29T06:45:51.279Z,85.91
2024-02-29T06:46:51.236Z,85.91
2024-02-29T06:47:51.257Z,85.81
2024-02-29T06:48:51.211Z,85.60
2024-02-29T06:49:51.174Z,85.56
2024-02-29T06:50:51.201Z,85.46
2024-02-29T06:51:51.180Z,85.14
2024-02-29T06:52:53.619Z,84.83
2024-02-29T06:53:51.160Z,84.62
2024-02-29T06:54:51.163Z,84.52
2024-02-29T06:55:51.168Z,84.31
2024-02-29T06:56:51.088Z,84.31
2024-02-29T06:57:51.139Z,84.31
2024-02-29T06:58:51.099Z,84.20
2024-02-29T06:59:53.607Z,84.20
2024-02-29T07:00:51.144Z,84.17
2024-02-29T07:01:51.246Z,84.27
2024-02-29T07:02:51.040Z,84.17
2024-02-29T07:03:51.060Z,84.06
2024-02-29T07:04:51.002Z,83.95
2024-02-29T07:05:50.996Z,83.75
2024-02-29T07:06:51.075Z,83.64
2024-02-29T07:07:51.011Z,83.64
2024-02-29T07:08:50.975Z,83.64
2024-02-29T07:09:51.004Z,83.75
2024-02-29T07:10:50.986Z,83.75
2024-02-29T07:11:51.015Z,83.61
2024-02-29T07:12:50.982Z,83.40
2024-02-29T07:13:50.894Z,83.40
2024-02-29T07:14:50.919Z,83.29
2024-02-29T07:15:50.886Z,83.18
2024-02-29T07:16:50.909Z,83.18
2024-02-29T07:17:50.990Z,83.18
2024-02-29T07:18:50.901Z,83.18
2024-02-29T07:19:50.836Z,83.04
2024-02-29T07:20:50.835Z,82.94
2024-02-29T07:21:50.972Z,82.84
2024-02-29T07:22:50.824Z,82.63
2024-02-29T07:23:50.927Z,82.63
2024-02-29T07:24:50.845Z,82.53
2024-02-29T07:25:50.778Z,82.42
2024-02-29T07:26:50.764Z,82.53
2024-02-29T07:27:50.866Z,82.42
2024-02-29T07:28:50.764Z,82.48
2024-02-29T07:29:50.711Z,82.48
2024-02-29T07:30:50.777Z,82.17
2024-02-29T07:31:53.397Z,82.07
2024-02-29T07:32:50.749Z,82.07
2024-02-29T07:33:50.699Z,81.86
2024-02-29T07:34:50.704Z,81.86
2024-02-29T07:35:50.654Z,81.72
2024-02-29T07:36:50.725Z,81.72
2024-02-29T07:37:52.923Z,81.62
2024-02-29T07:38:50.652Z,81.62
2024-02-29T07:39:50.646Z,81.51
2024-02-29T07:40:50.692Z,81.62
2024-02-29T07:41:50.620Z,81.58
2024-02-29T07:42:50.625Z,81.16
2024-02-29T07:43:50.591Z,81.16
2024-02-29T07:44:50.551Z,81.05
2024-02-29T07:45:50.655Z,80.95
2024-02-29T07:46:50.585Z,80.74
2024-02-29T07:47:50.580Z,80.54
2024-02-29T07:48:50.568Z,80.54
2024-02-29T07:49:50.519Z,80.43
2024-02-29T07:50:52.513Z,80.40
2024-02-29T07:51:50.615Z,80.29
2024-02-29T07:52:50.473Z,80.29
2024-02-29T07:53:50.465Z,80.29
2024-02-29T07:54:50.443Z,80.19
2024-02-29T07:55:50.474Z,79.77
2024-02-29T07:56:50.451Z,79.66
2024-02-29T07:57:50.457Z,79.52
2024-02-29T07:58:50.391Z,79.42
2024-02-29T07:59:50.403Z,79.46
2024-02-29T08:00:50.448Z,79.35
2024-02-29T08:01:50.461Z,79.35
2024-02-29T08:02:50.384Z,79.46
2024-02-29T08:03:50.357Z,79.46
2024-02-29T08:04:50.366Z,79.42
2024-02-29T08:05:50.361Z,79.42
2024-02-29T08:06:50.405Z,79.42
2024-02-29T08:07:50.292Z,79.11
2024-02-29T08:08:50.501Z,79.00
2024-02-29T08:09:50.268Z,79.11
2024-02-29T08:10:50.244Z,78.86
2024-02-29T08:11:50.270Z,78.86
2024-02-29T08:12:50.298Z,78.97
2024-02-29T08:13:50.267Z,78.86
2024-02-29T08:14:50.246Z,78.52
2024-02-29T08:15:50.227Z,78.34
2024-02-29T08:16:50.174Z,78.52
2024-02-29T08:17:50.208Z,78.31
2024-02-29T08:18:50.284Z,78.41
2024-02-29T08:19:50.234Z,78.41
2024-02-29T08:20:50.155Z,78.41
2024-02-29T08:21:50.259Z,78.10
2024-02-29T08:22:50.127Z,78.06
2024-02-29T08:23:50.122Z,78.06
2024-02-29T08:24:50.173Z,77.75
2024-02-29T08:25:50.093Z,77.75
2024-02-29T08:26:50.198Z,77.75
2024-02-29T08:27:50.129Z,77.72
2024-02-29T08:28:50.295Z,77.51
2024-02-29T08:29:50.077Z,77.51
2024-02-29T08:30:50.168Z,77.40
2024-02-29T08:31:50.072Z,77.51
2024-02-29T08:32:50.171Z,77.37
2024-02-29T08:33:50.065Z,77.26
2024-02-29T08:34:50.067Z,77.16
2024-02-29T08:35:50.022Z,77.02
2024-02-29T08:36:50.011Z,76.81
2024-02-29T08:37:49.942Z,76.57
2024-02-29T08:38:50.008Z,76.16
2024-02-29T08:39:49.971Z,75.95
2024-02-29T08:40:49.908Z,75.81
2024-02-29T08:41:49.956Z,75.60
2024-02-29T08:42:49.959Z,74.95
2024-02-29T08:43:49.911Z,75.05
2024-02-29T08:44:49.866Z,75.05
2024-02-29T08:45:49.911Z,74.71
2024-02-29T08:46:49.846Z,74.40
2024-02-29T08:47:49.859Z,74.40
2024-02-29T08:48:49.885Z,74.19
2024-02-29T08:49:50.889Z,74.36
2024-02-29T08:50:49.811Z,74.26
2024-02-29T08:51:49.863Z,74.36
2024-02-29T08:52:49.831Z,74.15
2024-02-29T08:53:49.791Z,74.02
2024-02-29T08:54:49.895Z,74.12
2024-02-29T08:55:49.813Z,74.95
2024-02-29T08:56:52.992Z,75.74
2024-02-29T08:57:49.777Z,75.29
2024-02-29T08:58:49.761Z,74.84
2024-02-29T08:59:49.707Z,74.29
2024-02-29T09:00:49.808Z,73.88
2024-02-29T09:01:49.833Z,73.54
2024-02-29T09:02:49.904Z,72.91
2024-02-29T09:03:49.706Z,72.57
2024-02-29T09:04:49.667Z,72.16
2024-02-29T09:05:49.636Z,71.92
2024-02-29T09:06:49.700Z,71.71
2024-02-29T09:07:49.600Z,71.61
2024-02-29T09:08:49.620Z,71.26
2024-02-29T09:09:49.653Z,71.06
2024-02-29T09:10:49.672Z,70.72
2024-02-29T09:11:49.557Z,70.72
2024-02-29T09:12:49.638Z,70.37
2024-02-29T09:13:49.572Z,69.52
2024-02-29T09:14:49.555Z,69.18
2024-02-29T09:15:57.093Z,68.43
2024-02-29T09:16:49.531Z,67.57
2024-02-29T09:17:49.549Z,66.96
2024-02-29T09:18:49.527Z,66.96
2024-02-29T09:19:49.463Z,66.75
2024-02-29T09:20:49.747Z,66.72
2024-02-29T09:21:49.471Z,66.51
2024-02-29T09:22:49.437Z,66.41
2024-02-29T09:23:49.454Z,66.31
2024-02-29T09:24:49.513Z,65.97
2024-02-29T09:25:49.427Z,65.69
2024-02-29T09:26:49.641Z,65.66
2024-02-29T09:27:49.408Z,65.45
2024-02-29T09:28:49.710Z,65.45
2024-02-29T09:29:49.351Z,65.25
2024-02-29T09:30:49.501Z,65.14
2024-02-29T09:31:49.316Z,64.94
2024-02-29T09:32:49.332Z,64.94
2024-02-29T09:33:49.353Z,65.14
2024-02-29T09:34:52.113Z,64.73
2024-02-29T09:35:49.278Z,64.73
2024-02-29T09:36:49.400Z,64.84
2024-02-29T09:37:49.296Z,64.70
2024-02-29T09:38:49.275Z,64.40
2024-02-29T09:39:49.288Z,64.16
2024-02-29T09:40:52.648Z,64.03
2024-02-29T09:42:08.117Z,62.63
2024-02-29T09:42:50.479Z,61.66
2024-02-29T09:43:49.199Z,59.96
2024-02-29T09:44:50.224Z,58.55
2024-02-29T09:45:49.197Z,56.86
2024-02-29T09:46:49.183Z,55.26
2024-02-29T09:47:49.186Z,53.98
2024-02-29T09:48:49.193Z,53.47
2024-02-29T09:49:51.349Z,52.53
2024-02-29T09:50:49.101Z,51.97
2024-02-29T09:51:49.278Z,51.31
2024-02-29T09:52:49.133Z,50.04
2024-02-29T09:53:49.143Z,49.33
2024-02-29T09:54:49.092Z,49.46
2024-02-29T09:55:49.045Z,49.46
2024-02-29T09:56:49.143Z,48.93
2024-02-29T09:57:49.107Z,48.72
2024-02-29T09:58:49.025Z,48.63
2024-02-29T09:59:49.012Z,48.50
2024-02-29T10:00:49.061Z,48.32
2024-02-29T10:01:49.286Z,48.40
2024-02-29T10:02:49.899Z,47.71
2024-02-29T10:03:49.010Z,47.69
2024-02-29T10:04:49.021Z,47.46
2024-02-29T10:05:48.946Z,46.81
2024-02-29T10:06:49.066Z,46.71
2024-02-29T10:07:49.004Z,46.30
2024-02-29T10:08:48.931Z,46.86
2024-02-29T10:09:48.966Z,47.49
2024-02-29T10:10:51.388Z,47.69
2024-02-29T10:11:48.906Z,47.77
2024-02-29T10:12:52.967Z,46.94
2024-02-29T10:13:49.212Z,46.63
2024-02-29T10:14:48.966Z,46.83
2024-02-29T10:15:48.834Z,46.95
2024-02-29T10:16:48.833Z,47.61
2024-02-29T10:17:48.824Z,47.69
2024-02-29T10:18:48.799Z,46.94
2024-02-29T10:19:48.804Z,46.63
2024-02-29T10:20:48.778Z,46.41
2024-02-29T10:21:48.820Z,46.18
2024-02-29T10:22:50.671Z,45.45
2024-02-29T10:23:48.764Z,44.95
2024-02-29T10:24:48.777Z,44.72
2024-02-29T10:25:48.739Z,44.52
2024-02-29T10:26:48.730Z,44.37
2024-02-29T10:27:48.708Z,44.07
2024-02-29T10:28:48.684Z,43.67
2024-02-29T10:29:48.690Z,44.12
2024-02-29T10:30:48.655Z,45.35
2024-02-29T10:31:48.709Z,45.03
2024-02-29T10:32:48.685Z,44.92
2024-02-29T10:33:48.688Z,44.29
2024-02-29T10:34:49.954Z,44.07
2024-02-29T10:35:48.645Z,43.67
2024-02-29T10:36:48.651Z,43.34
2024-02-29T10:37:48.582Z,43.46
2024-02-29T10:38:48.590Z,43.81
2024-02-29T10:39:48.582Z,44.54
2024-02-29T10:40:48.568Z,44.64
2024-02-29T10:41:48.594Z,44.74
2024-02-29T10:42:48.589Z,44.54
2024-02-29T10:43:48.529Z,44.42
2024-02-29T10:44:48.505Z,44.12
2024-02-29T10:45:48.567Z,44.42
2024-02-29T10:46:48.512Z,44.13
2024-02-29T10:47:48.519Z,45.15
2024-02-29T10:48:48.525Z,44.84
2024-02-29T10:49:48.458Z,44.60
2024-02-29T10:50:48.534Z,44.05
2024-02-29T10:51:48.589Z,42.29
2024-02-29T10:52:48.428Z,42.32
2024-02-29T10:53:48.405Z,42.54
2024-02-29T10:54:48.420Z,42.64
2024-02-29T10:55:49.452Z,42.94
2024-02-29T10:56:48.397Z,43.16
2024-02-29T10:57:48.416Z,43.61
2024-02-29T10:58:48.395Z,43.87
2024-02-29T10:59:48.351Z,42.96
2024-02-29T11:00:48.387Z,43.14
2024-02-29T11:01:48.691Z,42.92
2024-02-29T11:02:48.298Z,42.29
2024-02-29T11:03:48.373Z,42.70
2024-02-29T11:04:48.287Z,42.38
2024-02-29T11:05:48.270Z,42.09
2024-02-29T11:06:48.556Z,42.07
2024-02-29T11:07:48.236Z,41.35
2024-02-29T11:08:48.253Z,40.92
2024-02-29T11:09:48.500Z,41.20
2024-02-29T11:10:48.290Z,40.58
2024-02-29T11:11:48.195Z,39.98
2024-02-29T11:12:48.235Z,40.12
2024-02-29T11:13:48.188Z,40.98
2024-02-29T11:14:48.168Z,41.69
2024-02-29T11:15:48.209Z,41.79
2024-02-29T11:16:50.213Z,41.83
2024-02-29T11:17:48.236Z,42.13
2024-02-29T11:18:48.158Z,42.09
2024-02-29T11:19:54.651Z,42.11
2024-02-29T11:20:49.147Z,42.01
2024-02-29T11:21:48.143Z,41.69
2024-02-29T11:22:48.065Z,41.91
2024-02-29T11:23:48.055Z,41.89
2024-02-29T11:24:48.178Z,41.05
2024-02-29T11:25:48.101Z,40.94
2024-02-29T11:26:49.288Z,41.14
2024-02-29T11:27:48.112Z,40.74
2024-02-29T11:28:48.017Z,40.32
2024-02-29T11:29:48.138Z,40.20
2024-02-29T11:30:48.018Z,39.59
2024-02-29T11:31:48.095Z,39.48
2024-02-29T11:32:48.048Z,40.01
2024-02-29T11:33:48.051Z,40.88
2024-02-29T11:34:47.939Z,41.81
2024-02-29T11:35:47.937Z,42.33
2024-02-29T11:36:47.968Z,41.89
2024-02-29T11:37:47.954Z,41.67
2024-02-29T11:38:47.918Z,41.16
2024-02-29T11:39:47.953Z,41.25
2024-02-29T11:40:47.912Z,41.25
2024-02-29T11:41:47.879Z,40.86
2024-02-29T11:42:47.915Z,40.98
2024-02-29T11:43:47.840Z,41.27
2024-02-29T11:44:47.887Z,41.05
2024-02-29T11:45:48.255Z,40.54
2024-02-29T11:46:47.856Z,40.94
2024-02-29T11:47:47.848Z,40.34
2024-02-29T11:48:47.828Z,41.05
2024-02-29T11:49:47.775Z,40.82
2024-02-29T11:50:47.821Z,40.50
2024-02-29T11:51:47.754Z,39.79
2024-02-29T11:52:47.781Z,40.00
2024-02-29T11:53:47.738Z,40.10
2024-02-29T11:54:48.037Z,40.00
2024-02-29T11:55:49.562Z,39.68
2024-02-29T11:56:48.691Z,39.25
2024-02-29T11:57:47.706Z,39.28
2024-02-29T11:58:47.712Z,38.91
2024-02-29T11:59:47.693Z,40.50
2024-02-29T12:00:47.715Z,42.25
2024-02-29T12:01:47.930Z,42.58
2024-02-29T12:02:47.640Z,42.98
2024-02-29T12:03:47.626Z,42.86
2024-02-29T12:04:47.694Z,42.94
2024-02-29T12:05:47.626Z,42.21
2024-02-29T12:06:47.697Z,41.69
2024-02-29T12:07:47.572Z,42.03
2024-02-29T12:08:47.584Z,42.46
2024-02-29T12:09:47.645Z,42.66
2024-02-29T12:10:49.253Z,42.88
2024-02-29T12:11:47.599Z,43.10
2024-02-29T12:12:47.626Z,43.73
2024-02-29T12:13:47.541Z,43.95
2024-02-29T12:14:47.529Z,44.68
2024-02-29T12:15:47.495Z,44.54
2024-02-29T12:16:47.521Z,44.13
2024-02-29T12:17:47.534Z,43.73
2024-02-29T12:18:47.567Z,44.06
2024-02-29T12:19:47.451Z,44.58
2024-02-29T12:20:47.429Z,44.66
2024-02-29T12:21:47.477Z,44.34
2024-02-29T12:22:47.446Z,43.93
2024-02-29T12:23:47.431Z,44.34
2024-02-29T12:24:47.680Z,43.91
2024-02-29T12:25:47.394Z,43.71
2024-02-29T12:26:47.418Z,43.49
2024-02-29T12:27:47.428Z,43.59
2024-02-29T12:28:47.358Z,43.38
2024-02-29T12:29:47.345Z,43.71
2024-02-29T12:30:48.390Z,43.99
2024-02-29T12:31:47.305Z,43.69
2024-02-29T12:32:47.325Z,43.99
2024-02-29T12:33:47.461Z,43.37
2024-02-29T12:34:47.355Z,43.14
2024-02-29T12:35:47.326Z,42.52
2024-02-29T12:36:47.413Z,42.72
2024-02-29T12:37:47.252Z,42.19
2024-02-29T12:38:47.268Z,41.99
2024-02-29T12:39:47.395Z,42.09
2024-02-29T12:40:47.206Z,41.77
2024-02-29T12:41:50.266Z,41.67
2024-02-29T12:42:47.271Z,41.87
2024-02-29T12:43:47.187Z,41.55
2024-02-29T12:44:47.179Z,41.25
2024-02-29T12:45:47.180Z,41.27
2024-02-29T12:46:47.242Z,41.56
2024-02-29T12:47:47.143Z,41.47
2024-02-29T12:48:47.191Z,41.79
2024-02-29T12:49:47.181Z,42.43
2024-02-29T12:50:47.114Z,43.61
2024-02-29T12:51:47.125Z,45.21
2024-02-29T12:52:47.092Z,46.67